Time;durP1;ratioP1;P1;durP2;ratioP2;P2;SDS_P1;SDS_P2;PMS_P1;PMS_P2;Temp;Humidity;BMP_temperature;BMP_pressure;BME280_temperature;BME280_humidity;BME280_pressure;Samples;Min_cycle;Max_cycle;Signal;HPM_P1;HPM_P2
2021/10/30 00:01:00;;;;;;;9.93;6.27;;;10.30;99.90;;;;;;5059688;28;20202;-44
2021/10/30 00:03:26;;;;;;;7.23;6.17;;;10.30;99.90;;;;;;5035246;28;20222;-43
2021/10/30 00:05:53;;;;;;;8.47;5.90;;;10.30;99.90;;;;;;5047727;28;20202;-44
2021/10/30 00:08:20;;;;;;;7.60;5.57;;;10.30;99.90;;;;;;5054319;28;20214;-44
2021/10/30 00:10:46;;;;;;;6.47;5.77;;;10.30;99.90;;;;;;5048444;28;20198;-48
2021/10/30 00:13:14;;;;;;;6.43;5.83;;;10.30;99.90;;;;;;5054943;28;20763;-49
2021/10/30 00:15:42;;;;;;;7.37;6.07;;;10.30;99.90;;;;;;5056279;28;20214;-45
2021/10/30 00:18:08;;;;;;;7.33;5.33;;;10.30;99.90;;;;;;5038005;28;20241;-44
2021/10/30 00:20:35;;;;;;;8.93;5.33;;;10.30;99.90;;;;;;5051721;28;20206;-46
2021/10/30 00:23:02;;;;;;;8.90;5.57;;;10.30;99.90;;;;;;5062529;28;20191;-44
2021/10/30 00:25:29;;;;;;;8.83;5.97;;;10.30;99.90;;;;;;5043070;28;20227;-43
2021/10/30 00:27:55;;;;;;;6.73;5.53;;;10.40;99.90;;;;;;5053031;28;20211;-45
2021/10/30 00:30:23;;;;;;;8.70;6.10;;;10.40;99.90;;;;;;5061027;28;20215;-44
2021/10/30 00:32:50;;;;;;;6.13;5.27;;;10.40;99.90;;;;;;5037840;28;20216;-46
2021/10/30 00:35:17;;;;;;;6.10;5.30;;;10.40;99.90;;;;;;5051762;28;20713;-44
2021/10/30 00:37:43;;;;;;;9.23;5.77;;;10.40;99.90;;;;;;5046375;28;20389;-50
2021/10/30 00:40:12;;;;;;;7.50;5.53;;;10.40;99.90;;;;;;5057570;28;20817;-46
2021/10/30 00:42:38;;;;;;;5.93;5.33;;;10.40;99.90;;;;;;5050877;28;20274;-46
2021/10/30 00:45:06;;;;;;;7.20;6.07;;;10.50;99.90;;;;;;5060999;28;20221;-46
2021/10/30 00:47:34;;;;;;;6.50;5.90;;;10.50;99.90;;;;;;5046904;28;20219;-46
2021/10/30 00:50:01;;;;;;;7.20;5.43;;;10.50;99.90;;;;;;5032232;28;20211;-46
2021/10/30 00:52:29;;;;;;;7.60;5.37;;;10.50;99.90;;;;;;5050656;28;20203;-44
2021/10/30 00:54:58;;;;;;;8.70;6.20;;;10.50;99.90;;;;;;5050201;28;20746;-46
2021/10/30 00:57:26;;;;;;;5.87;5.07;;;10.40;99.90;;;;;;5053911;28;20210;-45
2021/10/30 00:59:53;;;;;;;7.30;5.83;;;10.50;99.90;;;;;;5054713;28;20186;-46
2021/10/30 01:02:20;;;;;;;7.53;5.60;;;10.40;99.90;;;;;;5061195;28;20655;-49
2021/10/30 01:04:48;;;;;;;6.23;5.57;;;10.40;99.90;;;;;;5028734;28;20207;-44
2021/10/30 01:07:15;;;;;;;7.73;6.10;;;10.40;99.90;;;;;;5052544;28;20722;-47
2021/10/30 01:09:42;;;;;;;6.20;5.60;;;10.40;99.90;;;;;;5047651;28;20198;-45
2021/10/30 01:12:09;;;;;;;8.57;5.53;;;10.40;99.90;;;;;;5053937;28;20207;-46
2021/10/30 01:14:38;;;;;;;6.07;5.00;;;10.40;99.90;;;;;;5052409;28;20321;-43
2021/10/30 01:17:06;;;;;;;6.70;5.67;;;10.40;99.90;;;;;;5058846;28;20199;-44
2021/10/30 01:19:33;;;;;;;6.20;5.23;;;10.40;99.90;;;;;;5032865;28;20359;-44
2021/10/30 01:22:03;;;;;;;8.60;5.30;;;10.40;99.90;;;;;;5054813;28;20203;-44
2021/10/30 01:24:30;;;;;;;7.23;5.00;;;10.40;99.90;;;;;;5057191;28;20665;-44
2021/10/30 01:26:57;;;;;;;7.37;5.53;;;10.40;99.90;;;;;;5050416;28;20925;-46
2021/10/30 01:29:24;;;;;;;8.60;5.53;;;10.40;99.90;;;;;;5060101;28;20203;-46
2021/10/30 01:31:53;;;;;;;8.27;5.37;;;10.40;99.90;;;;;;5062177;28;20203;-45
2021/10/30 01:34:20;;;;;;;8.50;5.17;;;10.40;99.90;;;;;;5059451;28;20637;-46
2021/10/30 01:36:46;;;;;;;7.73;5.23;;;10.40;99.90;;;;;;5037479;28;20199;-44
2021/10/30 01:39:16;;;;;;;6.30;5.33;;;10.40;99.90;;;;;;5058754;28;20194;-43
2021/10/30 01:41:43;;;;;;;6.93;5.63;;;10.40;99.90;;;;;;5049765;28;20511;-46
2021/10/30 01:44:11;;;;;;;9.60;5.27;;;10.40;99.90;;;;;;5060967;28;20708;-45
2021/10/30 01:46:38;;;;;;;7.17;5.73;;;10.30;99.90;;;;;;5060159;28;20535;-45
2021/10/30 01:49:05;;;;;;;6.13;5.20;;;10.30;99.90;;;;;;5054562;28;20223;-45
2021/10/30 01:51:32;;;;;;;8.00;5.90;;;10.30;99.90;;;;;;5030221;28;20218;-45
2021/10/30 01:54:00;;;;;;;6.83;5.63;;;10.30;99.90;;;;;;5046897;28;20215;-44
2021/10/30 01:56:28;;;;;;;8.50;6.00;;;10.20;99.90;;;;;;5056281;28;20202;-47
2021/10/30 01:58:55;;;;;;;7.23;5.43;;;10.20;99.90;;;;;;5054920;28;20187;-44
2021/10/30 02:01:22;;;;;;;6.63;5.00;;;10.20;99.90;;;;;;5052486;28;20200;-46
2021/10/30 02:03:49;;;;;;;5.57;5.07;;;10.20;99.90;;;;;;5057159;28;20276;-46
2021/10/30 02:06:16;;;;;;;6.80;5.80;;;10.10;99.90;;;;;;5037901;28;20210;-47
2021/10/30 02:08:44;;;;;;;8.17;5.90;;;10.10;99.90;;;;;;5049911;28;20207;-47
2021/10/30 02:11:10;;;;;;;7.50;6.27;;;10.00;99.90;;;;;;5047229;28;20213;-44
2021/10/30 02:13:38;;;;;;;6.43;5.83;;;10.00;99.90;;;;;;5055692;28;20285;-46
2021/10/30 02:16:05;;;;;;;9.23;6.37;;;10.00;99.90;;;;;;5055874;28;20205;-44
2021/10/30 02:18:32;;;;;;;7.67;6.03;;;9.90;99.90;;;;;;5050663;28;20280;-44
2021/10/30 02:20:58;;;;;;;8.77;5.93;;;9.80;99.90;;;;;;5051219;28;20194;-47
2021/10/30 02:23:25;;;;;;;6.90;5.80;;;9.80;99.90;;;;;;5033388;28;20206;-45
2021/10/30 02:25:51;;;;;;;7.27;6.00;;;9.80;99.90;;;;;;5058213;28;20202;-44
2021/10/30 02:28:18;;;;;;;6.80;5.77;;;9.80;99.90;;;;;;5045825;28;20229;-45
2021/10/30 02:30:46;;;;;;;6.63;5.80;;;9.70;99.90;;;;;;5037707;28;20191;-44
2021/10/30 02:33:13;;;;;;;6.33;5.43;;;9.70;99.90;;;;;;5045521;28;20525;-47
2021/10/30 02:35:39;;;;;;;5.67;5.03;;;8.80;99.90;;;;;;5050652;28;20222;-48
2021/10/30 02:38:06;;;;;;;8.10;5.23;;;9.60;99.90;;;;;;5039624;28;20191;-49
2021/10/30 02:40:33;;;;;;;5.23;4.73;;;9.60;99.90;;;;;;5048407;28;20881;-46
2021/10/30 02:42:59;;;;;;;6.20;4.60;;;9.50;99.90;;;;;;5048451;28;20202;-48
2021/10/30 02:45:26;;;;;;;7.10;4.83;;;9.50;99.90;;;;;;5046069;28;20234;-47
2021/10/30 02:47:54;;;;;;;8.37;4.80;;;9.50;99.90;;;;;;5055514;28;20240;-51
2021/10/30 02:50:21;;;;;;;6.60;4.87;;;9.50;99.90;;;;;;5048116;28;20747;-44
2021/10/30 02:52:48;;;;;;;7.13;5.00;;;9.50;99.90;;;;;;5052700;28;20193;-46
2021/10/30 02:55:14;;;;;;;7.60;5.13;;;9.50;99.90;;;;;;5027043;28;20259;-44
2021/10/30 02:57:46;;;;;;;6.57;4.90;;;9.40;99.90;;;;;;5056407;28;20917;-46
2021/10/30 03:00:14;;;;;;;6.53;5.47;;;9.40;99.90;;;;;;5048056;28;20722;-45
2021/10/30 03:02:41;;;;;;;6.40;4.97;;;9.40;99.90;;;;;;5053832;28;20214;-46
2021/10/30 03:05:10;;;;;;;7.77;4.73;;;9.30;99.90;;;;;;5048270;28;20229;-46
2021/10/30 03:07:38;;;;;;;5.33;4.40;;;9.30;99.90;;;;;;5055441;28;20973;-45
2021/10/30 03:10:05;;;;;;;6.80;4.63;;;9.40;99.90;;;;;;5039500;28;20279;-44
2021/10/30 03:12:33;;;;;;;4.73;3.97;;;9.30;99.90;;;;;;5047030;28;20191;-46
2021/10/30 03:15:00;;;;;;;8.07;4.40;;;9.30;99.90;;;;;;5046286;28;20235;-45
2021/10/30 03:17:26;;;;;;;5.87;4.10;;;9.30;99.90;;;;;;5051505;28;20711;-44
2021/10/30 03:19:53;;;;;;;6.13;5.53;;;9.20;99.90;;;;;;5051254;28;20206;-46
2021/10/30 03:22:21;;;;;;;5.80;4.70;;;9.20;99.90;;;;;;5049267;28;20205;-48
2021/10/30 03:24:49;;;;;;;4.93;4.07;;;9.10;99.90;;;;;;5031273;28;20346;-44
2021/10/30 03:27:16;;;;;;;6.73;4.13;;;9.00;99.90;;;;;;5049095;28;20223;-46
2021/10/30 03:29:42;;;;;;;5.37;4.87;;;9.00;99.90;;;;;;5050673;28;20276;-48
2021/10/30 03:32:09;;;;;;;8.90;5.20;;;8.90;99.90;;;;;;5054611;28;20198;-44
2021/10/30 03:34:36;;;;;;;9.27;5.20;;;8.90;99.90;;;;;;5052667;28;20217;-47
2021/10/30 03:37:03;;;;;;;6.80;5.07;;;8.90;99.90;;;;;;5057446;28;20202;-47
2021/10/30 03:39:31;;;;;;;6.57;5.47;;;8.90;99.90;;;;;;5045550;28;20198;-45
2021/10/30 03:41:58;;;;;;;5.93;5.40;;;8.90;99.90;;;;;;5033462;28;20663;-46
2021/10/30 03:44:24;;;;;;;5.87;5.30;;;8.90;99.90;;;;;;5052825;28;20695;-47
2021/10/30 03:46:51;;;;;;;5.90;5.30;;;8.90;99.90;;;;;;5054642;28;20320;-46
2021/10/30 03:49:17;;;;;;;5.90;5.03;;;8.90;99.90;;;;;;5053238;28;20226;-46
2021/10/30 03:51:44;;;;;;;6.03;4.73;;;8.90;99.90;;;;;;5055946;28;20233;-45
2021/10/30 03:54:11;;;;;;;7.93;5.00;;;8.90;99.90;;;;;;5060008;28;20242;-45
2021/10/30 03:56:39;;;;;;;7.37;6.00;;;8.90;99.90;;;;;;5038503;28;20215;-44
2021/10/30 03:59:07;;;;;;;7.57;5.77;;;8.90;99.90;;;;;;5045992;28;20216;-45
2021/10/30 04:01:33;;;;;;;6.30;5.10;;;8.80;99.90;;;;;;5045666;28;20202;-45
2021/10/30 04:04:00;;;;;;;7.80;5.20;;;8.90;99.90;;;;;;5056838;28;20223;-47
2021/10/30 04:06:27;;;;;;;5.43;4.97;;;8.90;99.90;;;;;;5052440;28;20229;-45
2021/10/30 04:08:53;;;;;;;7.93;5.50;;;8.80;99.90;;;;;;5051179;28;20215;-46
2021/10/30 04:11:20;;;;;;;6.67;5.40;;;8.90;99.90;;;;;;5040080;28;20563;-43
2021/10/30 04:13:50;;;;;;;7.03;5.47;;;8.80;99.90;;;;;;5048180;28;20293;-42
2021/10/30 04:16:17;;;;;;;5.63;4.97;;;8.90;99.90;;;;;;5045706;28;20720;-43
2021/10/30 04:18:44;;;;;;;6.10;5.30;;;8.80;99.90;;;;;;5049993;28;20198;-42
2021/10/30 04:21:11;;;;;;;6.57;4.93;;;8.80;99.90;;;;;;5062474;28;20664;-43
2021/10/30 04:23:38;;;;;;;6.90;5.17;;;8.80;99.90;;;;;;5049965;28;21011;-45
2021/10/30 04:26:05;;;;;;;6.60;5.37;;;8.80;99.90;;;;;;5059137;28;20256;-43
2021/10/30 04:28:32;;;;;;;9.83;5.30;;;8.80;99.90;;;;;;5028537;28;20844;-45
2021/10/30 04:31:04;;;;;;;7.27;5.30;;;8.80;99.90;;;;;;5050377;28;20199;-43
2021/10/30 04:33:31;;;;;;;5.63;5.03;;;8.80;99.90;;;;;;5053298;28;20918;-43
2021/10/30 04:35:57;;;;;;;5.83;5.17;;;8.80;99.90;;;;;;5049137;28;20524;-44
2021/10/30 04:38:24;;;;;;;6.10;5.07;;;8.80;99.90;;;;;;5062652;28;20202;-43
2021/10/30 04:40:51;;;;;;;5.63;4.90;;;8.80;99.90;;;;;;5046422;28;20545;-44
2021/10/30 04:43:17;;;;;;;6.13;5.53;;;8.80;99.90;;;;;;5036064;28;20211;-44
2021/10/30 04:45:44;;;;;;;6.07;5.23;;;8.80;99.90;;;;;;5049930;28;21859;-43
2021/10/30 04:48:12;;;;;;;7.67;5.60;;;8.80;99.90;;;;;;5036097;28;20227;-47
2021/10/30 04:50:39;;;;;;;8.07;5.97;;;8.80;99.90;;;;;;5054369;28;20232;-45
2021/10/30 04:53:06;;;;;;;7.97;5.37;;;8.80;99.90;;;;;;5054608;28;20909;-44
2021/10/30 04:55:32;;;;;;;8.17;5.90;;;8.80;99.90;;;;;;5057018;28;20233;-43
2021/10/30 04:57:59;;;;;;;6.57;5.40;;;8.80;99.90;;;;;;5048936;28;20199;-44
2021/10/30 05:00:26;;;;;;;6.97;5.73;;;8.80;99.90;;;;;;5039483;28;20211;-45
2021/10/30 05:02:52;;;;;;;5.67;5.17;;;8.80;99.90;;;;;;5044139;28;20210;-43
2021/10/30 05:05:20;;;;;;;7.47;5.43;;;8.80;99.90;;;;;;5048964;28;20681;-43
2021/10/30 05:07:47;;;;;;;5.40;4.90;;;8.80;99.90;;;;;;5059720;28;20214;-42
2021/10/30 05:10:13;;;;;;;7.40;5.77;;;8.80;99.90;;;;;;5045767;28;20231;-48
2021/10/30 05:12:40;;;;;;;6.27;5.60;;;8.80;99.90;;;;;;5049268;28;20187;-43
2021/10/30 05:15:07;;;;;;;6.50;5.50;;;8.80;99.90;;;;;;5036084;28;22245;-47
2021/10/30 05:17:33;;;;;;;7.17;5.37;;;8.80;99.90;;;;;;5047429;28;20259;-43
2021/10/30 05:20:00;;;;;;;5.73;5.23;;;8.80;99.90;;;;;;5038952;28;20192;-43
2021/10/30 05:22:28;;;;;;;5.93;5.37;;;8.80;99.90;;;;;;5053443;28;20202;-46
2021/10/30 05:24:55;;;;;;;9.13;5.23;;;8.80;99.90;;;;;;5046268;28;20223;-43
2021/10/30 05:27:21;;;;;;;6.73;5.33;;;8.80;99.90;;;;;;5045625;28;20214;-43
2021/10/30 05:29:49;;;;;;;7.37;5.20;;;8.80;99.90;;;;;;5053047;28;20222;-43
2021/10/30 05:32:16;;;;;;;7.60;5.33;;;8.80;99.90;;;;;;5036271;28;20200;-43
2021/10/30 05:35:21;;;;;;;6.80;5.83;;;8.80;99.90;;;;;;5047948;28;20710;-46
2021/10/30 05:38:14;;;;;;;7.37;5.73;;;8.70;99.90;;;;;;5042272;28;20290;-45
2021/10/30 05:40:41;;;;;;;7.67;5.50;;;8.70;99.90;;;;;;5056135;28;20207;-49
2021/10/30 05:43:08;;;;;;;5.67;5.03;;;8.70;99.90;;;;;;5046099;28;20249;-49
2021/10/30 05:45:34;;;;;;;6.00;5.10;;;8.70;99.90;;;;;;5051555;28;20222;-45
2021/10/30 05:48:03;;;;;;;7.17;5.40;;;8.70;99.90;;;;;;5032076;28;20206;-44
2021/10/30 05:50:30;;;;;;;5.73;5.23;;;8.70;99.90;;;;;;5051152;28;20222;-43
2021/10/30 05:52:56;;;;;;;5.70;5.10;;;8.70;99.90;;;;;;5055038;28;20206;-45
2021/10/30 05:55:24;;;;;;;7.33;5.40;;;8.70;99.90;;;;;;5053668;28;20250;-43
2021/10/30 05:57:51;;;;;;;7.97;5.70;;;8.70;99.90;;;;;;5059710;28;20211;-43
2021/10/30 06:00:18;;;;;;;6.03;5.43;;;8.70;99.90;;;;;;5053997;28;20194;-44
2021/10/30 06:02:45;;;;;;;7.17;6.20;;;8.70;99.90;;;;;;5032091;28;20540;-43
2021/10/30 06:05:11;;;;;;;7.33;5.90;;;8.70;99.90;;;;;;5049544;28;20238;-45
2021/10/30 06:07:38;;;;;;;7.03;5.87;;;8.70;99.90;;;;;;5049789;28;20203;-45
2021/10/30 06:10:06;;;;;;;7.97;5.90;;;8.70;99.90;;;;;;5045010;28;20245;-45
2021/10/30 06:12:38;;;;;;;6.23;5.63;;;8.70;99.90;;;;;;5061484;28;20557;-47
2021/10/30 06:15:05;;;;;;;7.23;5.60;;;8.70;99.90;;;;;;5047366;28;20269;-43
2021/10/30 06:17:32;;;;;;;6.93;6.20;;;8.70;99.90;;;;;;5053028;28;20657;-42
2021/10/30 06:19:59;;;;;;;6.80;6.10;;;8.70;99.90;;;;;;5033084;28;20204;-42
2021/10/30 06:22:25;;;;;;;7.33;6.30;;;8.70;99.90;;;;;;5051419;28;20210;-42
2021/10/30 06:24:52;;;;;;;7.43;6.70;;;8.70;99.90;;;;;;5049330;28;20219;-41
2021/10/30 06:27:18;;;;;;;6.73;6.03;;;8.70;99.90;;;;;;5051578;28;20187;-43
2021/10/30 06:29:47;;;;;;;6.77;5.97;;;8.70;99.90;;;;;;5051483;28;20218;-42
2021/10/30 06:32:13;;;;;;;8.53;6.43;;;8.80;99.90;;;;;;5049559;28;20192;-45
2021/10/30 06:34:40;;;;;;;7.80;6.63;;;8.80;99.90;;;;;;5039295;28;20243;-43
2021/10/30 06:37:07;;;;;;;7.70;6.47;;;8.80;99.90;;;;;;5049948;28;20206;-43
2021/10/30 06:39:34;;;;;;;8.33;6.60;;;8.90;99.90;;;;;;5059565;28;20268;-43
2021/10/30 06:42:01;;;;;;;8.47;5.93;;;8.90;99.90;;;;;;5051540;28;20257;-42
2021/10/30 06:44:28;;;;;;;7.70;6.60;;;9.00;99.90;;;;;;5060785;28;20247;-45
2021/10/30 06:46:56;;;;;;;6.67;6.07;;;9.00;99.90;;;;;;5051748;28;20206;-43
2021/10/30 06:49:24;;;;;;;8.13;6.77;;;9.10;99.90;;;;;;5062000;28;20215;-43
2021/10/30 06:51:52;;;;;;;8.10;6.63;;;9.10;99.90;;;;;;5033909;28;20676;-45
2021/10/30 06:54:19;;;;;;;8.87;6.90;;;9.20;99.90;;;;;;5046263;28;20298;-48
2021/10/30 06:56:46;;;;;;;14.33;6.90;;;9.20;99.90;;;;;;5053159;28;20621;-48
2021/10/30 06:59:12;;;;;;;7.33;6.63;;;9.30;99.90;;;;;;5054059;28;20193;-48
2021/10/30 07:01:40;;;;;;;9.73;7.00;;;9.30;99.90;;;;;;5052662;28;20195;-44
2021/10/30 07:04:08;;;;;;;7.23;6.43;;;9.30;99.90;;;;;;5052959;28;20230;-44
2021/10/30 07:06:35;;;;;;;9.00;6.70;;;9.30;99.90;;;;;;5035914;28;20583;-43
2021/10/30 07:09:02;;;;;;;9.33;7.17;;;9.30;99.90;;;;;;5046807;28;20206;-43
2021/10/30 07:11:28;;;;;;;11.00;6.83;;;9.40;99.90;;;;;;5063322;28;20207;-44
2021/10/30 07:13:55;;;;;;;10.37;7.43;;;9.40;99.90;;;;;;5043905;28;20211;-44
2021/10/30 07:16:24;;;;;;;8.73;7.13;;;9.40;99.90;;;;;;5052712;28;20191;-45
2021/10/30 07:18:51;;;;;;;9.20;7.13;;;9.40;99.90;;;;;;5052006;28;20210;-42
2021/10/30 07:21:19;;;;;;;8.00;7.07;;;9.40;99.90;;;;;;5037308;28;20207;-43
2021/10/30 07:23:45;;;;;;;8.73;7.80;;;9.50;99.90;;;;;;5046268;28;20333;-43
2021/10/30 07:26:12;;;;;;;8.77;7.40;;;9.50;99.90;;;;;;5050869;28;20203;-46
2021/10/30 07:28:41;;;;;;;9.27;6.90;;;9.50;99.90;;;;;;5049400;28;20194;-46
2021/10/30 07:31:08;;;;;;;10.07;8.63;;;9.50;99.90;;;;;;5055288;28;20211;-44
2021/10/30 07:33:35;;;;;;;9.13;6.97;;;9.60;99.90;;;;;;5048442;28;20191;-48
2021/10/30 07:36:01;;;;;;;10.23;7.63;;;9.60;99.90;;;;;;5045160;28;20231;-43
2021/10/30 07:38:29;;;;;;;7.77;6.97;;;9.60;99.90;;;;;;5027396;28;20205;-46
2021/10/30 07:40:56;;;;;;;8.97;6.83;;;9.60;99.90;;;;;;5051636;28;20205;-44
2021/10/30 07:43:22;;;;;;;8.00;7.20;;;9.70;99.90;;;;;;5053342;28;20214;-42
2021/10/30 07:45:49;;;;;;;7.83;6.90;;;9.70;99.90;;;;;;5050013;28;20207;-42
2021/10/30 07:48:17;;;;;;;8.80;6.83;;;9.80;99.90;;;;;;5048964;28;20997;-43
2021/10/30 07:50:43;;;;;;;8.67;6.77;;;9.90;99.90;;;;;;5040956;28;20215;-45
2021/10/30 07:53:10;;;;;;;11.13;7.27;;;10.00;99.90;;;;;;5037001;28;20937;-43
2021/10/30 07:55:38;;;;;;;9.20;7.57;;;10.10;99.90;;;;;;5044938;28;20238;-44
2021/10/30 07:58:05;;;;;;;9.40;6.63;;;10.20;99.90;;;;;;5044156;28;20906;-43
2021/10/30 08:00:32;;;;;;;12.20;7.43;;;10.30;99.90;;;;;;5052098;28;20199;-43
2021/10/30 08:02:58;;;;;;;8.97;7.37;;;10.30;99.90;;;;;;5059759;28;20207;-45
2021/10/30 08:05:25;;;;;;;7.03;6.27;;;10.40;99.90;;;;;;5062497;28;20211;-46
2021/10/30 08:07:52;;;;;;;9.50;7.23;;;10.50;99.90;;;;;;5054327;28;20213;-42
2021/10/30 08:10:18;;;;;;;9.33;6.93;;;10.50;99.90;;;;;;5038952;28;20214;-44
2021/10/30 08:12:46;;;;;;;10.03;6.70;;;10.60;99.90;;;;;;5057052;28;20208;-48
2021/10/30 08:15:13;;;;;;;10.03;6.47;;;10.70;99.90;;;;;;5050420;28;20206;-44
2021/10/30 08:17:40;;;;;;;7.30;5.87;;;10.80;99.90;;;;;;5040071;28;20214;-44
2021/10/30 08:20:07;;;;;;;8.03;6.23;;;11.00;99.90;;;;;;5046361;28;20189;-44
2021/10/30 08:22:34;;;;;;;8.90;6.43;;;11.20;99.90;;;;;;5041943;28;20217;-45
2021/10/30 08:25:01;;;;;;;7.63;6.57;;;11.40;99.90;;;;;;5038962;28;20230;-44
2021/10/30 08:27:27;;;;;;;7.33;5.33;;;11.50;99.90;;;;;;5050206;28;20201;-47
2021/10/30 08:29:55;;;;;;;5.37;4.87;;;11.70;99.90;;;;;;5046927;28;20219;-43
2021/10/30 08:32:22;;;;;;;6.30;5.50;;;11.80;99.90;;;;;;5047342;28;20202;-44
2021/10/30 08:34:49;;;;;;;8.30;5.50;;;11.90;99.90;;;;;;5052759;28;20223;-44
2021/10/30 08:37:15;;;;;;;7.57;5.57;;;12.00;99.90;;;;;;5053474;28;20206;-46
2021/10/30 08:39:42;;;;;;;6.13;4.77;;;12.10;99.90;;;;;;5043776;28;20203;-48
2021/10/30 08:42:09;;;;;;;5.67;5.07;;;12.10;99.90;;;;;;5051033;28;20214;-44
2021/10/30 08:44:37;;;;;;;5.37;4.87;;;12.20;99.90;;;;;;5045361;28;20921;-44
2021/10/30 08:47:06;;;;;;;5.00;4.33;;;12.20;99.90;;;;;;5062698;28;20277;-44
2021/10/30 08:49:36;;;;;;;6.37;4.53;;;12.30;99.90;;;;;;5045334;28;20211;-44
2021/10/30 08:52:03;;;;;;;5.17;4.67;;;12.40;99.90;;;;;;5063208;28;20664;-45
2021/10/30 08:54:29;;;;;;;5.27;4.77;;;12.50;99.90;;;;;;5037296;28;20227;-44
2021/10/30 08:56:56;;;;;;;4.93;4.20;;;12.60;99.90;;;;;;5054975;28;20203;-43
2021/10/30 08:59:38;;;;;;;5.17;4.47;;;12.70;99.90;;;;;;5051187;28;20281;-43
2021/10/30 09:02:08;;;;;;;5.47;3.90;;;12.90;99.90;;;;;;5045317;28;20207;-46
2021/10/30 09:04:35;;;;;;;4.90;4.40;;;13.00;99.90;;;;;;5051987;28;20218;-44
2021/10/30 09:07:05;;;;;;;5.13;3.93;;;13.10;99.90;;;;;;5051562;28;20574;-47
2021/10/30 09:09:32;;;;;;;4.60;4.20;;;13.20;99.90;;;;;;5052287;28;20333;-43
2021/10/30 09:12:00;;;;;;;7.53;4.00;;;13.20;99.90;;;;;;5036910;28;20215;-43
2021/10/30 09:14:28;;;;;;;6.17;4.37;;;13.20;99.90;;;;;;5040462;28;20221;-43
2021/10/30 09:17:17;;;;;;;4.50;3.90;;;13.20;99.90;;;;;;5047787;28;20203;-44
2021/10/30 09:19:47;;;;;;;6.03;4.03;;;13.20;99.90;;;;;;5052194;28;20188;-47
2021/10/30 09:22:15;;;;;;;4.37;3.63;;;13.30;99.90;;;;;;5045474;28;20203;-44
2021/10/30 09:24:53;;;;;;;6.10;3.70;;;13.30;99.90;;;;;;5049339;28;20218;-45
2021/10/30 09:27:23;;;;;;;6.17;3.67;;;13.30;99.90;;;;;;5034109;28;20210;-44
2021/10/30 09:29:54;;;;;;;4.43;3.67;;;13.30;99.90;;;;;;5040028;28;20223;-44
2021/10/30 09:32:26;;;;;;;3.97;3.43;;;13.30;99.90;;;;;;5047831;28;20225;-44
2021/10/30 09:34:54;;;;;;;4.00;3.67;;;13.30;99.90;;;;;;5038159;28;20223;-47
2021/10/30 09:37:23;;;;;;;3.83;3.53;;;13.30;99.90;;;;;;5057556;28;20210;-47
2021/10/30 09:40:17;;;;;;;3.20;2.90;;;13.30;99.90;;;;;;5052349;28;20191;-44
2021/10/30 09:42:44;;;;;;;4.77;3.80;;;13.30;99.90;;;;;;5041873;28;20215;-43
2021/10/30 09:45:13;;;;;;;4.17;3.23;;;13.30;99.90;;;;;;5049223;28;20226;-46
2021/10/30 09:47:44;;;;;;;3.50;3.20;;;13.30;99.90;;;;;;5052577;28;20199;-47
2021/10/30 09:50:23;;;;;;;3.93;3.57;;;13.30;99.90;;;;;;5057761;28;20695;-43
2021/10/30 09:52:50;;;;;;;4.87;2.97;;;13.30;99.90;;;;;;5053910;28;20261;-47
2021/10/30 09:55:23;;;;;;;8.63;3.50;;;13.40;99.90;;;;;;5044450;28;20219;-44
2021/10/30 09:57:59;;;;;;;6.10;3.37;;;13.40;99.90;;;;;;5033063;28;20199;-43
2021/10/30 10:00:25;;;;;;;4.17;3.60;;;13.50;99.90;;;;;;5047453;28;20206;-43
2021/10/30 10:02:55;;;;;;;3.57;3.27;;;13.50;99.90;;;;;;5053151;28;20199;-44
2021/10/30 10:05:22;;;;;;;4.17;3.17;;;13.60;99.90;;;;;;5052923;28;20225;-44
2021/10/30 10:07:51;;;;;;;3.77;3.47;;;13.70;99.90;;;;;;5060042;28;20213;-44
2021/10/30 10:10:19;;;;;;;3.43;2.90;;;13.70;99.90;;;;;;5045006;28;20226;-45
2021/10/30 10:12:46;;;;;;;3.67;2.90;;;13.80;99.90;;;;;;5059979;28;20205;-47
2021/10/30 10:15:15;;;;;;;3.50;3.30;;;13.90;99.90;;;;;;5038051;28;20238;-43
2021/10/30 10:17:42;;;;;;;3.57;3.03;;;13.90;99.90;;;;;;5052335;28;20206;-44
2021/10/30 10:20:12;;;;;;;4.20;3.27;;;13.90;99.90;;;;;;5038124;28;20200;-45
2021/10/30 10:22:41;;;;;;;6.40;3.27;;;13.90;99.90;;;;;;5047692;28;20215;-43
2021/10/30 10:25:28;;;;;;;4.73;3.33;;;14.00;99.90;;;;;;5053262;28;20313;-44
2021/10/30 10:27:56;;;;;;;3.97;3.50;;;14.10;99.90;;;;;;5035231;28;20207;-43
2021/10/30 10:30:23;;;;;;;4.03;3.43;;;14.20;99.90;;;;;;5039805;28;20218;-42
2021/10/30 10:32:49;;;;;;;4.60;4.20;;;14.30;99.90;;;;;;5043079;28;20198;-45
2021/10/30 10:35:18;;;;;;;4.00;3.63;;;14.40;99.90;;;;;;5049674;28;20224;-43
2021/10/30 10:37:49;;;;;;;4.03;3.43;;;14.50;99.90;;;;;;5044609;28;20207;-43
2021/10/30 10:40:29;;;;;;;4.10;3.80;;;14.60;99.90;;;;;;5044791;28;20199;-43
2021/10/30 10:42:56;;;;;;;4.10;3.70;;;14.70;99.90;;;;;;5041508;28;20441;-43
2021/10/30 10:45:22;;;;;;;4.70;4.07;;;14.70;99.90;;;;;;5031979;28;20592;-43
2021/10/30 10:48:03;;;;;;;4.77;3.43;;;14.80;99.90;;;;;;5038594;28;20302;-43
2021/10/30 10:50:39;;;;;;;5.27;3.97;;;14.80;99.90;;;;;;5055561;28;20211;-44
2021/10/30 10:53:18;;;;;;;4.67;3.63;;;14.70;99.90;;;;;;5050200;28;21322;-48
2021/10/30 10:56:07;;;;;;;5.40;3.97;;;14.80;99.90;;;;;;5041625;28;20313;-45
2021/10/30 10:59:02;;;;;;;5.50;4.07;;;14.70;99.90;;;;;;5037444;28;20219;-43
2021/10/30 11:01:29;;;;;;;5.00;3.87;;;14.70;99.90;;;;;;5049290;28;20190;-43
2021/10/30 11:04:11;;;;;;;4.53;4.00;;;14.70;99.90;;;;;;5050917;28;20223;-43
2021/10/30 11:06:42;;;;;;;4.63;3.67;;;14.70;99.90;;;;;;5048589;28;20671;-45
2021/10/30 11:09:17;;;;;;;4.33;3.93;;;14.70;99.90;;;;;;5053020;28;20285;-44
2021/10/30 11:11:44;;;;;;;4.07;3.67;;;14.80;99.90;;;;;;5049361;28;20211;-44
2021/10/30 11:14:12;;;;;;;4.40;3.73;;;14.80;99.90;;;;;;5036946;28;20215;-47
2021/10/30 11:16:42;;;;;;;4.50;4.10;;;14.80;99.90;;;;;;5031051;28;20207;-45
2021/10/30 11:19:16;;;;;;;5.07;3.57;;;14.90;99.90;;;;;;5050256;28;20207;-43
2021/10/30 11:21:47;;;;;;;6.43;3.97;;;14.90;99.90;;;;;;5053845;28;20198;-44
2021/10/30 11:24:27;;;;;;;3.53;3.23;;;14.90;99.90;;;;;;5040912;28;20214;-45
2021/10/30 11:27:04;;;;;;;3.67;3.37;;;14.90;99.90;;;;;;5043930;28;20445;-44
2021/10/30 11:29:31;;;;;;;4.83;3.40;;;14.90;99.90;;;;;;5035411;28;20199;-47
2021/10/30 11:31:59;;;;;;;4.40;2.73;;;14.90;99.90;;;;;;5027810;28;20219;-43
2021/10/30 11:34:26;;;;;;;6.53;3.33;;;14.90;99.90;;;;;;5028823;28;20219;-44
2021/10/30 11:36:56;;;;;;;3.43;3.13;;;14.90;99.90;;;;;;5037249;28;20191;-46
2021/10/30 11:39:24;;;;;;;3.40;3.10;;;15.00;99.90;;;;;;5047532;28;20285;-43
2021/10/30 11:41:51;;;;;;;4.07;3.43;;;15.00;99.90;;;;;;5040677;28;20916;-43
2021/10/30 11:44:20;;;;;;;4.20;3.80;;;15.00;99.90;;;;;;5029348;28;20230;-43
2021/10/30 11:46:49;;;;;;;4.63;3.90;;;15.00;99.90;;;;;;5027537;28;20657;-44
2021/10/30 11:49:23;;;;;;;5.97;3.77;;;15.00;99.90;;;;;;5044636;28;20187;-44
2021/10/30 11:51:50;;;;;;;4.63;4.10;;;15.00;99.90;;;;;;5049605;28;20215;-45
2021/10/30 11:54:21;;;;;;;5.17;4.20;;;15.00;99.90;;;;;;5047598;28;20207;-48
2021/10/30 11:56:49;;;;;;;4.93;4.50;;;14.90;99.90;;;;;;5049819;28;20210;-44
2021/10/30 11:59:15;;;;;;;4.60;4.20;;;14.90;99.90;;;;;;5047853;28;20191;-46
2021/10/30 12:01:43;;;;;;;6.43;4.90;;;14.90;99.90;;;;;;5039597;28;20199;-44
2021/10/30 12:04:12;;;;;;;5.87;5.07;;;14.80;99.90;;;;;;5044565;28;20220;-43
2021/10/30 12:06:42;;;;;;;6.53;4.50;;;14.80;99.90;;;;;;5037155;28;20211;-44
2021/10/30 12:09:21;;;;;;;5.57;5.07;;;14.80;99.90;;;;;;5045728;28;20286;-44
2021/10/30 12:11:48;;;;;;;8.13;4.90;;;14.80;99.90;;;;;;5052608;28;20234;-43
2021/10/30 12:14:25;;;;;;;6.13;5.53;;;14.70;99.90;;;;;;5043452;28;20219;-46
2021/10/30 12:16:53;;;;;;;5.87;4.80;;;14.70;99.90;;;;;;5036003;28;20302;-45
2021/10/30 12:19:20;;;;;;;5.20;4.70;;;14.70;99.90;;;;;;5040549;28;20199;-46
2021/10/30 12:21:47;;;;;;;5.40;4.97;;;14.70;99.90;;;;;;5036930;28;20291;-44
2021/10/30 12:24:15;;;;;;;6.63;5.30;;;14.70;99.90;;;;;;5036346;28;20214;-43
2021/10/30 12:26:58;;;;;;;6.83;5.07;;;14.60;99.90;;;;;;5047484;28;20278;-44
2021/10/30 12:29:27;;;;;;;7.57;5.03;;;14.70;99.90;;;;;;5034721;28;20347;-46
2021/10/30 12:32:05;;;;;;;5.87;5.00;;;14.60;99.90;;;;;;5034335;28;20245;-45
2021/10/30 12:34:33;;;;;;;6.20;5.60;;;14.60;99.90;;;;;;5040615;28;20230;-43
2021/10/30 12:37:03;;;;;;;6.67;5.60;;;14.60;99.90;;;;;;5036154;28;20211;-43
2021/10/30 12:39:31;;;;;;;5.67;4.90;;;14.60;99.90;;;;;;5041962;28;20206;-45
2021/10/30 12:42:00;;;;;;;6.53;5.10;;;14.60;99.90;;;;;;5040218;28;20213;-43
2021/10/30 12:44:30;;;;;;;6.17;4.90;;;14.60;99.90;;;;;;5045313;28;20292;-44
2021/10/30 12:47:00;;;;;;;6.47;5.13;;;14.60;99.90;;;;;;5034040;28;20211;-43
2021/10/30 12:49:28;;;;;;;6.57;5.63;;;14.50;99.90;;;;;;5047502;28;20212;-43
2021/10/30 12:52:04;;;;;;;6.57;5.70;;;14.50;99.90;;;;;;5035544;28;20556;-44
2021/10/30 12:54:31;;;;;;;7.77;5.57;;;14.50;99.90;;;;;;5045700;28;20226;-42
2021/10/30 12:56:59;;;;;;;8.00;6.07;;;14.50;99.90;;;;;;5041279;28;20199;-45